sensor_id;sensor_type;location;lat;lon;timestamp;pressure;altitude;pressure_sealevel;temperature;humidity
45872;BME280;32333;55.844;-3.210;2024-02-15T00:01:44;98436.90;;;10.63;100.00
45872;BME280;32333;55.844;-3.210;2024-02-15T00:04:12;98430.93;;;10.93;100.00
45872;BME280;32333;55.844;-3.210;2024-02-15T00:06:40;98431.15;;;8.77;100.00
45872;BME280;32333;55.844;-3.210;2024-02-15T00:09:07;98432.29;;;10.13;100.00
45872;BME280;32333;55.844;-3.210;2024-02-15T00:11:34;98432.83;;;8.95;100.00
45872;BME280;32333;55.844;-3.210;2024-02-15T00:14:34;98431.35;;;9.49;100.00
45872;BME280;32333;55.844;-3.210;2024-02-15T00:17:01;98428.99;;;9.88;100.00
45872;BME280;32333;55.844;-3.210;2024-02-15T00:19:28;98430.55;;;8.90;100.00
45872;BME280;32333;55.844;-3.210;2024-02-15T00:21:55;98426.86;;;9.68;100.00
45872;BME280;32333;55.844;-3.210;2024-02-15T00:24:23;98425.58;;;10.06;100.00
45872;BME280;32333;55.844;-3.210;2024-02-15T00:26:50;98423.06;;;10.74;100.00
45872;BME280;32333;55.844;-3.210;2024-02-15T00:29:18;98419.34;;;10.06;100.00
45872;BME280;32333;55.844;-3.210;2024-02-15T00:31:44;98417.00;;;10.61;100.00
45872;BME280;32333;55.844;-3.210;2024-02-15T00:34:12;98411.49;;;9.67;100.00
45872;BME280;32333;55.844;-3.210;2024-02-15T00:36:42;98413.05;;;10.73;100.00
45872;BME280;32333;55.844;-3.210;2024-02-15T00:39:09;98410.49;;;9.47;100.00
45872;BME280;32333;55.844;-3.210;2024-02-15T00:41:37;98403.34;;;9.88;100.00
45872;BME280;32333;55.844;-3.210;2024-02-15T00:44:34;98403.04;;;10.04;100.00
45872;BME280;32333;55.844;-3.210;2024-02-15T00:47:01;98395.16;;;9.83;100.00
45872;BME280;32333;55.844;-3.210;2024-02-15T00:49:28;98390.63;;;10.67;100.00
45872;BME280;32333;55.844;-3.210;2024-02-15T00:51:56;98389.70;;;10.34;100.00
45872;BME280;32333;55.844;-3.210;2024-02-15T00:54:23;98388.39;;;10.19;100.00
45872;BME280;32333;55.844;-3.210;2024-02-15T00:56:51;98387.02;;;10.83;100.00
45872;BME280;32333;55.844;-3.210;2024-02-15T00:59:18;98384.79;;;11.39;100.00
45872;BME280;32333;55.844;-3.210;2024-02-15T01:01:45;98384.27;;;11.59;100.00
45872;BME280;32333;55.844;-3.210;2024-02-15T01:04:13;98387.24;;;11.62;100.00
45872;BME280;32333;55.844;-3.210;2024-02-15T01:06:40;98390.83;;;9.97;100.00
45872;BME280;32333;55.844;-3.210;2024-02-15T01:09:08;98390.92;;;10.00;100.00
45872;BME280;32333;55.844;-3.210;2024-02-15T01:11:35;98388.08;;;10.00;100.00
45872;BME280;32333;55.844;-3.210;2024-02-15T01:14:34;98383.65;;;10.01;100.00
45872;BME280;32333;55.844;-3.210;2024-02-15T01:17:02;98378.88;;;9.65;100.00
45872;BME280;32333;55.844;-3.210;2024-02-15T01:19:29;98373.80;;;10.38;100.00
45872;BME280;32333;55.844;-3.210;2024-02-15T01:21:57;98373.13;;;9.96;100.00
45872;BME280;32333;55.844;-3.210;2024-02-15T01:24:24;98372.58;;;10.04;100.00
45872;BME280;32333;55.844;-3.210;2024-02-15T01:26:51;98373.18;;;9.33;100.00
45872;BME280;32333;55.844;-3.210;2024-02-15T01:29:19;98369.37;;;10.57;100.00
45872;BME280;32333;55.844;-3.210;2024-02-15T01:31:47;98368.02;;;9.95;100.00
45872;BME280;32333;55.844;-3.210;2024-02-15T01:34:14;98362.67;;;10.45;100.00
45872;BME280;32333;55.844;-3.210;2024-02-15T01:36:41;98360.10;;;10.36;100.00
45872;BME280;32333;55.844;-3.210;2024-02-15T01:39:08;98356.09;;;10.93;100.00
45872;BME280;32333;55.844;-3.210;2024-02-15T01:41:35;98352.20;;;10.99;100.00
45872;BME280;32333;55.844;-3.210;2024-02-15T01:44:35;98347.02;;;10.27;100.00
45872;BME280;32333;55.844;-3.210;2024-02-15T01:47:02;98345.82;;;10.31;100.00
45872;BME280;32333;55.844;-3.210;2024-02-15T01:49:30;98349.12;;;10.00;100.00
45872;BME280;32333;55.844;-3.210;2024-02-15T01:51:58;98348.37;;;9.68;100.00
45872;BME280;32333;55.844;-3.210;2024-02-15T01:54:28;98341.01;;;10.90;100.00
45872;BME280;32333;55.844;-3.210;2024-02-15T01:56:56;98338.25;;;10.51;100.00
45872;BME280;32333;55.844;-3.210;2024-02-15T01:59:24;98333.68;;;10.34;100.00
45872;BME280;32333;55.844;-3.210;2024-02-15T02:01:52;98331.41;;;10.51;100.00
45872;BME280;32333;55.844;-3.210;2024-02-15T02:04:21;98330.91;;;9.95;100.00
45872;BME280;32333;55.844;-3.210;2024-02-15T02:06:48;98329.61;;;9.15;100.00
45872;BME280;32333;55.844;-3.210;2024-02-15T02:09:16;98327.84;;;10.11;100.00
45872;BME280;32333;55.844;-3.210;2024-02-15T02:11:45;98324.65;;;10.69;100.00
45872;BME280;32333;55.844;-3.210;2024-02-15T02:14:35;98323.07;;;10.80;100.00
45872;BME280;32333;55.844;-3.210;2024-02-15T02:17:11;98319.20;;;10.96;100.00
45872;BME280;32333;55.844;-3.210;2024-02-15T02:19:38;98316.93;;;10.80;100.00
45872;BME280;32333;55.844;-3.210;2024-02-15T02:22:07;98313.91;;;10.89;100.00
45872;BME280;32333;55.844;-3.210;2024-02-15T02:24:42;98312.12;;;10.98;100.00
45872;BME280;32333;55.844;-3.210;2024-02-15T02:27:12;98310.62;;;9.18;100.00
45872;BME280;32333;55.844;-3.210;2024-02-15T02:29:42;98305.13;;;10.37;100.00
45872;BME280;32333;55.844;-3.210;2024-02-15T02:32:10;98303.57;;;10.52;100.00
45872;BME280;32333;55.844;-3.210;2024-02-15T02:34:37;98302.82;;;10.35;100.00
45872;BME280;32333;55.844;-3.210;2024-02-15T02:37:04;98302.54;;;10.32;100.00
45872;BME280;32333;55.844;-3.210;2024-02-15T02:39:32;98300.56;;;10.25;100.00
45872;BME280;32333;55.844;-3.210;2024-02-15T02:41:59;98299.71;;;10.23;100.00
45872;BME280;32333;55.844;-3.210;2024-02-15T02:44:34;98297.46;;;10.37;100.00
45872;BME280;32333;55.844;-3.210;2024-02-15T02:47:02;98290.91;;;10.14;100.00
45872;BME280;32333;55.844;-3.210;2024-02-15T02:49:29;98286.01;;;10.43;100.00
45872;BME280;32333;55.844;-3.210;2024-02-15T02:51:56;98285.36;;;11.15;100.00
45872;BME280;32333;55.844;-3.210;2024-02-15T02:54:23;98282.31;;;11.02;100.00
45872;BME280;32333;55.844;-3.210;2024-02-15T02:56:50;98272.91;;;10.47;100.00
45872;BME280;32333;55.844;-3.210;2024-02-15T02:59:17;98268.99;;;11.42;100.00
45872;BME280;32333;55.844;-3.210;2024-02-15T03:01:44;98263.73;;;11.19;100.00
45872;BME280;32333;55.844;-3.210;2024-02-15T03:04:11;98260.30;;;10.67;100.00
45872;BME280;32333;55.844;-3.210;2024-02-15T03:06:38;98257.91;;;10.56;100.00
45872;BME280;32333;55.844;-3.210;2024-02-15T03:09:05;98251.03;;;10.21;100.00
45872;BME280;32333;55.844;-3.210;2024-02-15T03:11:32;98248.06;;;10.29;100.00
45872;BME280;32333;55.844;-3.210;2024-02-15T03:14:34;98248.57;;;9.92;100.00
45872;BME280;32333;55.844;-3.210;2024-02-15T03:17:01;98245.48;;;10.14;100.00
45872;BME280;32333;55.844;-3.210;2024-02-15T03:19:28;98241.93;;;10.70;100.00
45872;BME280;32333;55.844;-3.210;2024-02-15T03:21:55;98231.25;;;10.46;100.00
45872;BME280;32333;55.844;-3.210;2024-02-15T03:24:22;98229.16;;;9.61;100.00
45872;BME280;32333;55.844;-3.210;2024-02-15T03:26:49;98224.64;;;10.00;100.00
45872;BME280;32333;55.844;-3.210;2024-02-15T03:29:16;98222.17;;;10.25;100.00
45872;BME280;32333;55.844;-3.210;2024-02-15T03:31:44;98220.03;;;10.14;100.00
45872;BME280;32333;55.844;-3.210;2024-02-15T03:34:11;98219.99;;;10.16;100.00
45872;BME280;32333;55.844;-3.210;2024-02-15T03:36:38;98218.91;;;10.04;100.00
45872;BME280;32333;55.844;-3.210;2024-02-15T03:39:05;98217.32;;;10.31;100.00
45872;BME280;32333;55.844;-3.210;2024-02-15T03:41:32;98213.68;;;9.91;100.00
45872;BME280;32333;55.844;-3.210;2024-02-15T03:44:35;98210.08;;;9.57;100.00
45872;BME280;32333;55.844;-3.210;2024-02-15T03:47:04;98210.62;;;9.45;100.00
45872;BME280;32333;55.844;-3.210;2024-02-15T03:49:31;98208.30;;;9.83;100.00
45872;BME280;32333;55.844;-3.210;2024-02-15T03:51:59;98209.12;;;10.26;100.00
45872;BME280;32333;55.844;-3.210;2024-02-15T03:54:26;98205.73;;;9.44;100.00
45872;BME280;32333;55.844;-3.210;2024-02-15T03:56:54;98196.78;;;10.22;100.00
45872;BME280;32333;55.844;-3.210;2024-02-15T03:59:22;98197.62;;;11.14;100.00
45872;BME280;32333;55.844;-3.210;2024-02-15T04:01:50;98190.48;;;11.37;100.00
45872;BME280;32333;55.844;-3.210;2024-02-15T04:04:17;98186.91;;;11.63;100.00
45872;BME280;32333;55.844;-3.210;2024-02-15T04:06:44;98187.35;;;10.17;100.00
45872;BME280;32333;55.844;-3.210;2024-02-15T04:09:12;98177.97;;;10.49;100.00
45872;BME280;32333;55.844;-3.210;2024-02-15T04:11:39;98172.39;;;11.25;100.00
45872;BME280;32333;55.844;-3.210;2024-02-15T04:14:35;98172.30;;;10.95;100.00
45872;BME280;32333;55.844;-3.210;2024-02-15T04:17:03;98166.84;;;11.90;100.00
45872;BME280;32333;55.844;-3.210;2024-02-15T04:19:30;98169.15;;;11.19;100.00
45872;BME280;32333;55.844;-3.210;2024-02-15T04:21:59;98172.17;;;11.02;100.00
45872;BME280;32333;55.844;-3.210;2024-02-15T04:24:27;98176.08;;;10.89;100.00
45872;BME280;32333;55.844;-3.210;2024-02-15T04:26:54;98182.42;;;10.95;100.00
45872;BME280;32333;55.844;-3.210;2024-02-15T04:29:23;98186.48;;;10.29;100.00
45872;BME280;32333;55.844;-3.210;2024-02-15T04:31:50;98184.56;;;10.94;100.00
45872;BME280;32333;55.844;-3.210;2024-02-15T04:34:17;98185.08;;;11.68;100.00
45872;BME280;32333;55.844;-3.210;2024-02-15T04:36:46;98180.91;;;10.93;100.00
45872;BME280;32333;55.844;-3.210;2024-02-15T04:39:14;98179.62;;;10.59;100.00
45872;BME280;32333;55.844;-3.210;2024-02-15T04:41:41;98175.49;;;10.55;100.00
45872;BME280;32333;55.844;-3.210;2024-02-15T04:44:34;98176.05;;;11.81;100.00
45872;BME280;32333;55.844;-3.210;2024-02-15T04:47:02;98173.49;;;11.74;100.00
45872;BME280;32333;55.844;-3.210;2024-02-15T04:49:29;98174.53;;;10.77;100.00
45872;BME280;32333;55.844;-3.210;2024-02-15T04:51:57;98171.86;;;11.11;100.00
45872;BME280;32333;55.844;-3.210;2024-02-15T04:54:25;98164.97;;;11.09;100.00
45872;BME280;32333;55.844;-3.210;2024-02-15T04:56:52;98166.56;;;10.90;100.00
45872;BME280;32333;55.844;-3.210;2024-02-15T04:59:19;98170.08;;;10.36;100.00
45872;BME280;32333;55.844;-3.210;2024-02-15T05:01:47;98167.04;;;10.97;100.00
45872;BME280;32333;55.844;-3.210;2024-02-15T05:04:14;98163.07;;;11.58;100.00
45872;BME280;32333;55.844;-3.210;2024-02-15T05:06:41;98164.59;;;11.41;100.00
45872;BME280;32333;55.844;-3.210;2024-02-15T05:09:08;98162.41;;;11.86;100.00
45872;BME280;32333;55.844;-3.210;2024-02-15T05:11:37;98169.01;;;11.22;100.00
45872;BME280;32333;55.844;-3.210;2024-02-15T05:14:34;98157.70;;;11.44;100.00
45872;BME280;32333;55.844;-3.210;2024-02-15T05:17:01;98156.14;;;11.14;100.00
45872;BME280;32333;55.844;-3.210;2024-02-15T05:19:29;98149.34;;;11.76;100.00
45872;BME280;32333;55.844;-3.210;2024-02-15T05:21:56;98149.63;;;11.77;100.00
45872;BME280;32333;55.844;-3.210;2024-02-15T05:24:23;98148.71;;;11.46;100.00
45872;BME280;32333;55.844;-3.210;2024-02-15T05:26:50;98146.53;;;11.61;100.00
45872;BME280;32333;55.844;-3.210;2024-02-15T05:29:17;98142.01;;;11.24;100.00
45872;BME280;32333;55.844;-3.210;2024-02-15T05:31:44;98140.93;;;11.22;100.00
45872;BME280;32333;55.844;-3.210;2024-02-15T05:34:12;98140.56;;;12.02;100.00
45872;BME280;32333;55.844;-3.210;2024-02-15T05:36:39;98143.98;;;10.97;100.00
45872;BME280;32333;55.844;-3.210;2024-02-15T05:39:07;98137.49;;;11.42;100.00
45872;BME280;32333;55.844;-3.210;2024-02-15T05:41:35;98134.40;;;11.32;100.00
45872;BME280;32333;55.844;-3.210;2024-02-15T05:44:34;98129.19;;;11.55;100.00
45872;BME280;32333;55.844;-3.210;2024-02-15T05:47:01;98136.95;;;10.77;100.00
45872;BME280;32333;55.844;-3.210;2024-02-15T05:49:29;98131.62;;;11.21;100.00
45872;BME280;32333;55.844;-3.210;2024-02-15T05:51:57;98124.76;;;11.24;100.00
45872;BME280;32333;55.844;-3.210;2024-02-15T05:54:25;98125.92;;;11.78;100.00
45872;BME280;32333;55.844;-3.210;2024-02-15T05:56:52;98123.11;;;11.37;100.00
45872;BME280;32333;55.844;-3.210;2024-02-15T05:59:19;98125.84;;;11.69;100.00
45872;BME280;32333;55.844;-3.210;2024-02-15T06:01:46;98124.81;;;11.31;100.00
45872;BME280;32333;55.844;-3.210;2024-02-15T06:04:14;98124.86;;;11.43;100.00
45872;BME280;32333;55.844;-3.210;2024-02-15T06:06:42;98120.46;;;10.99;100.00
45872;BME280;32333;55.844;-3.210;2024-02-15T06:09:09;98119.11;;;11.43;100.00
45872;BME280;32333;55.844;-3.210;2024-02-15T06:11:36;98121.15;;;10.36;100.00
45872;BME280;32333;55.844;-3.210;2024-02-15T06:14:34;98118.82;;;9.78;100.00
45872;BME280;32333;55.844;-3.210;2024-02-15T06:17:02;98119.91;;;9.63;100.00
45872;BME280;32333;55.844;-3.210;2024-02-15T06:19:29;98120.98;;;9.73;100.00
45872;BME280;32333;55.844;-3.210;2024-02-15T06:21:58;98117.22;;;10.22;100.00
45872;BME280;32333;55.844;-3.210;2024-02-15T06:24:26;98114.22;;;10.26;100.00
45872;BME280;32333;55.844;-3.210;2024-02-15T06:26:53;98110.12;;;10.56;100.00
45872;BME280;32333;55.844;-3.210;2024-02-15T06:29:21;98107.65;;;10.32;100.00
45872;BME280;32333;55.844;-3.210;2024-02-15T06:31:48;98098.77;;;11.20;100.00
45872;BME280;32333;55.844;-3.210;2024-02-15T06:34:15;98097.65;;;10.89;100.00
45872;BME280;32333;55.844;-3.210;2024-02-15T06:36:46;98096.63;;;10.93;100.00
45872;BME280;32333;55.844;-3.210;2024-02-15T06:39:14;98092.13;;;11.22;100.00
45872;BME280;32333;55.844;-3.210;2024-02-15T06:41:41;98091.13;;;10.91;100.00
45872;BME280;32333;55.844;-3.210;2024-02-15T06:44:34;98087.63;;;11.33;100.00
45872;BME280;32333;55.844;-3.210;2024-02-15T06:47:01;98091.02;;;10.57;100.00
45872;BME280;32333;55.844;-3.210;2024-02-15T06:49:28;98078.94;;;11.31;100.00
45872;BME280;32333;55.844;-3.210;2024-02-15T06:51:55;98075.31;;;11.57;100.00
45872;BME280;32333;55.844;-3.210;2024-02-15T06:54:22;98071.38;;;10.79;100.00
45872;BME280;32333;55.844;-3.210;2024-02-15T06:56:49;98070.14;;;10.56;100.00
45872;BME280;32333;55.844;-3.210;2024-02-15T06:59:16;98072.39;;;10.41;100.00
45872;BME280;32333;55.844;-3.210;2024-02-15T07:01:43;98069.19;;;9.76;100.00
45872;BME280;32333;55.844;-3.210;2024-02-15T07:04:11;98068.81;;;9.88;100.00
45872;BME280;32333;55.844;-3.210;2024-02-15T07:06:39;98066.49;;;9.88;100.00
45872;BME280;32333;55.844;-3.210;2024-02-15T07:09:07;98065.96;;;9.00;100.00
45872;BME280;32333;55.844;-3.210;2024-02-15T07:11:34;98063.89;;;9.53;100.00
45872;BME280;32333;55.844;-3.210;2024-02-15T07:14:34;98062.96;;;8.17;100.00
45872;BME280;32333;55.844;-3.210;2024-02-15T07:17:01;98061.73;;;8.80;100.00
45872;BME280;32333;55.844;-3.210;2024-02-15T07:19:29;98062.76;;;8.21;100.00
45872;BME280;32333;55.844;-3.210;2024-02-15T07:21:56;98064.52;;;8.85;100.00
45872;BME280;32333;55.844;-3.210;2024-02-15T07:24:23;98062.18;;;8.08;100.00
45872;BME280;32333;55.844;-3.210;2024-02-15T07:26:50;98061.99;;;7.80;100.00
45872;BME280;32333;55.844;-3.210;2024-02-15T07:29:18;98062.45;;;8.04;100.00
45872;BME280;32333;55.844;-3.210;2024-02-15T07:31:45;98060.50;;;8.04;100.00
45872;BME280;32333;55.844;-3.210;2024-02-15T07:34:12;98059.05;;;8.10;100.00
45872;BME280;32333;55.844;-3.210;2024-02-15T07:36:39;98062.35;;;7.98;100.00
45872;BME280;32333;55.844;-3.210;2024-02-15T07:39:06;98065.66;;;8.06;100.00
45872;BME280;32333;55.844;-3.210;2024-02-15T07:41:33;98067.68;;;7.69;100.00
45872;BME280;32333;55.844;-3.210;2024-02-15T07:44:34;98069.09;;;8.21;100.00
45872;BME280;32333;55.844;-3.210;2024-02-15T07:47:01;98066.94;;;8.26;100.00
45872;BME280;32333;55.844;-3.210;2024-02-15T07:49:29;98068.82;;;8.21;100.00
45872;BME280;32333;55.844;-3.210;2024-02-15T07:51:57;98070.29;;;7.50;100.00
45872;BME280;32333;55.844;-3.210;2024-02-15T07:54:25;98070.38;;;8.63;100.00
45872;BME280;32333;55.844;-3.210;2024-02-15T07:56:53;98073.67;;;8.55;100.00
45872;BME280;32333;55.844;-3.210;2024-02-15T07:59:21;98068.45;;;8.54;100.00
45872;BME280;32333;55.844;-3.210;2024-02-15T08:01:48;98069.54;;;8.42;100.00
45872;BME280;32333;55.844;-3.210;2024-02-15T08:04:16;98072.79;;;8.37;100.00
45872;BME280;32333;55.844;-3.210;2024-02-15T08:06:43;98077.51;;;8.19;100.00
45872;BME280;32333;55.844;-3.210;2024-02-15T08:09:10;98074.15;;;8.26;100.00
45872;BME280;32333;55.844;-3.210;2024-02-15T08:11:37;98072.01;;;7.55;100.00
45872;BME280;32333;55.844;-3.210;2024-02-15T08:14:35;98075.73;;;8.33;100.00
45872;BME280;32333;55.844;-3.210;2024-02-15T08:17:02;98075.66;;;8.06;100.00
45872;BME280;32333;55.844;-3.210;2024-02-15T08:19:30;98073.58;;;7.28;100.00
45872;BME280;32333;55.844;-3.210;2024-02-15T08:22:03;98069.41;;;7.89;100.00
45872;BME280;32333;55.844;-3.210;2024-02-15T08:24:31;98067.39;;;8.32;100.00
45872;BME280;32333;55.844;-3.210;2024-02-15T08:26:58;98064.22;;;8.63;100.00
45872;BME280;32333;55.844;-3.210;2024-02-15T08:29:25;98057.53;;;9.01;100.00
45872;BME280;32333;55.844;-3.210;2024-02-15T08:31:52;98056.39;;;8.55;100.00
45872;BME280;32333;55.844;-3.210;2024-02-15T08:34:19;98056.36;;;8.52;100.00
45872;BME280;32333;55.844;-3.210;2024-02-15T08:36:46;98053.83;;;8.71;100.00
45872;BME280;32333;55.844;-3.210;2024-02-15T08:39:13;98056.45;;;8.77;100.00
45872;BME280;32333;55.844;-3.210;2024-02-15T08:41:40;98060.32;;;7.76;100.00
45872;BME280;32333;55.844;-3.210;2024-02-15T08:44:34;98060.38;;;8.86;100.00
45872;BME280;32333;55.844;-3.210;2024-02-15T08:47:01;98061.43;;;8.15;100.00
45872;BME280;32333;55.844;-3.210;2024-02-15T08:49:28;98058.75;;;9.34;100.00
45872;BME280;32333;55.844;-3.210;2024-02-15T08:51:55;98060.36;;;8.66;100.00
45872;BME280;32333;55.844;-3.210;2024-02-15T08:54:22;98056.00;;;8.49;100.00
45872;BME280;32333;55.844;-3.210;2024-02-15T08:56:49;98055.62;;;8.62;100.00
45872;BME280;32333;55.844;-3.210;2024-02-15T08:59:16;98057.98;;;8.90;100.00
45872;BME280;32333;55.844;-3.210;2024-02-15T09:01:43;98064.04;;;8.84;100.00
45872;BME280;32333;55.844;-3.210;2024-02-15T09:04:10;98063.14;;;8.41;100.00
45872;BME280;32333;55.844;-3.210;2024-02-15T09:06:38;98053.45;;;9.02;100.00
45872;BME280;32333;55.844;-3.210;2024-02-15T09:09:05;98051.71;;;9.87;100.00
45872;BME280;32333;55.844;-3.210;2024-02-15T09:11:32;98052.99;;;9.47;100.00
45872;BME280;32333;55.844;-3.210;2024-02-15T09:14:35;98050.64;;;10.47;100.00
45872;BME280;32333;55.844;-3.210;2024-02-15T09:17:04;98054.40;;;10.09;100.00
45872;BME280;32333;55.844;-3.210;2024-02-15T09:19:32;98049.35;;;9.96;100.00
45872;BME280;32333;55.844;-3.210;2024-02-15T09:21:59;98051.23;;;9.97;100.00
45872;BME280;32333;55.844;-3.210;2024-02-15T09:24:26;98043.46;;;9.57;100.00
45872;BME280;32333;55.844;-3.210;2024-02-15T09:26:53;98046.95;;;9.91;100.00
45872;BME280;32333;55.844;-3.210;2024-02-15T09:29:21;98040.50;;;9.91;100.00
45872;BME280;32333;55.844;-3.210;2024-02-15T09:31:49;98034.40;;;9.12;100.00
45872;BME280;32333;55.844;-3.210;2024-02-15T09:34:16;98035.44;;;9.77;100.00
45872;BME280;32333;55.844;-3.210;2024-02-15T09:36:43;98036.39;;;9.24;100.00
45872;BME280;32333;55.844;-3.210;2024-02-15T09:39:10;98028.68;;;9.32;100.00
45872;BME280;32333;55.844;-3.210;2024-02-15T09:41:37;98028.63;;;10.06;100.00
45872;BME280;32333;55.844;-3.210;2024-02-15T09:44:34;98030.36;;;9.44;100.00
45872;BME280;32333;55.844;-3.210;2024-02-15T09:47:03;98029.36;;;9.27;100.00
45872;BME280;32333;55.844;-3.210;2024-02-15T09:49:35;98027.83;;;9.31;100.00
45872;BME280;32333;55.844;-3.210;2024-02-15T09:52:04;98025.60;;;8.95;100.00
45872;BME280;32333;55.844;-3.210;2024-02-15T09:54:34;98021.56;;;10.17;100.00
45872;BME280;32333;55.844;-3.210;2024-02-15T09:57:02;98013.14;;;10.19;100.00
45872;BME280;32333;55.844;-3.210;2024-02-15T09:59:30;98014.77;;;10.27;100.00
45872;BME280;32333;55.844;-3.210;2024-02-15T10:01:59;98008.39;;;11.14;100.00
45872;BME280;32333;55.844;-3.210;2024-02-15T10:04:26;98007.61;;;10.04;100.00
45872;BME280;32333;55.844;-3.210;2024-02-15T10:06:54;98006.64;;;10.30;100.00
45872;BME280;32333;55.844;-3.210;2024-02-15T10:09:26;98007.06;;;10.07;100.00
45872;BME280;32333;55.844;-3.210;2024-02-15T10:11:55;98002.17;;;10.33;100.00
45872;BME280;32333;55.844;-3.210;2024-02-15T10:14:34;97998.17;;;11.43;100.00
45872;BME280;32333;55.844;-3.210;2024-02-15T10:17:06;97994.61;;;10.47;100.00
45872;BME280;32333;55.844;-3.210;2024-02-15T10:19:34;97991.12;;;11.21;100.00
45872;BME280;32333;55.844;-3.210;2024-02-15T10:22:06;97985.37;;;10.63;100.00
45872;BME280;32333;55.844;-3.210;2024-02-15T10:24:34;97983.61;;;10.93;100.00
45872;BME280;32333;55.844;-3.210;2024-02-15T10:27:03;97982.52;;;10.84;100.00
45872;BME280;32333;55.844;-3.210;2024-02-15T10:29:31;97979.27;;;10.84;100.00
45872;BME280;32333;55.844;-3.210;2024-02-15T10:32:00;97976.07;;;11.46;100.00
45872;BME280;32333;55.844;-3.210;2024-02-15T10:34:28;97970.99;;;11.10;100.00
45872;BME280;32333;55.844;-3.210;2024-02-15T10:36:55;97965.28;;;10.43;100.00
45872;BME280;32333;55.844;-3.210;2024-02-15T10:39:37;97960.09;;;11.58;100.00
45872;BME280;32333;55.844;-3.210;2024-02-15T10:44:34;97954.56;;;11.82;100.00
45872;BME280;32333;55.844;-3.210;2024-02-15T10:47:03;97954.31;;;11.52;100.00
45872;BME280;32333;55.844;-3.210;2024-02-15T10:49:30;97954.76;;;11.76;100.00
45872;BME280;32333;55.844;-3.210;2024-02-15T10:51:58;97961.03;;;11.35;100.00
45872;BME280;32333;55.844;-3.210;2024-02-15T10:54:46;97962.25;;;10.58;100.00
45872;BME280;32333;55.844;-3.210;2024-02-15T10:57:15;97963.66;;;11.86;100.00
45872;BME280;32333;55.844;-3.210;2024-02-15T10:59:54;97964.05;;;11.18;100.00
45872;BME280;32333;55.844;-3.210;2024-02-15T11:02:27;97962.63;;;11.52;100.00
45872;BME280;32333;55.844;-3.210;2024-02-15T11:04:58;97960.23;;;11.61;100.00
45872;BME280;32333;55.844;-3.210;2024-02-15T11:07:28;97960.49;;;11.50;100.00
45872;BME280;32333;55.844;-3.210;2024-02-15T11:09:57;97953.67;;;11.02;100.00
45872;BME280;32333;55.844;-3.210;2024-02-15T11:14:35;97956.54;;;11.37;100.00
45872;BME280;32333;55.844;-3.210;2024-02-15T11:17:03;97959.52;;;11.84;100.00
45872;BME280;32333;55.844;-3.210;2024-02-15T11:19:44;97956.59;;;12.06;100.00
45872;BME280;32333;55.844;-3.210;2024-02-15T11:22:12;97959.46;;;11.10;100.00
45872;BME280;32333;55.844;-3.210;2024-02-15T11:24:48;97953.55;;;11.57;100.00
45872;BME280;32333;55.844;-3.210;2024-02-15T11:27:31;97950.64;;;11.31;100.00
45872;BME280;32333;55.844;-3.210;2024-02-15T11:29:59;97950.54;;;11.42;100.00
45872;BME280;32333;55.844;-3.210;2024-02-15T11:32:39;97945.26;;;12.55;100.00
45872;BME280;32333;55.844;-3.210;2024-02-15T11:35:07;97939.39;;;11.21;100.00
45872;BME280;32333;55.844;-3.210;2024-02-15T11:37:53;97935.29;;;11.78;100.00
45872;BME280;32333;55.844;-3.210;2024-02-15T11:40:22;97930.78;;;13.02;100.00
45872;BME280;32333;55.844;-3.210;2024-02-15T11:44:34;97924.29;;;13.07;100.00
45872;BME280;32333;55.844;-3.210;2024-02-15T11:47:02;97921.03;;;12.37;100.00
45872;BME280;32333;55.844;-3.210;2024-02-15T11:49:31;97921.14;;;13.27;100.00
45872;BME280;32333;55.844;-3.210;2024-02-15T11:52:08;97920.07;;;11.26;100.00
45872;BME280;32333;55.844;-3.210;2024-02-15T11:54:36;97916.80;;;13.73;100.00
45872;BME280;32333;55.844;-3.210;2024-02-15T11:57:04;97918.40;;;13.48;100.00
45872;BME280;32333;55.844;-3.210;2024-02-15T11:59:39;97913.37;;;13.34;100.00
45872;BME280;32333;55.844;-3.210;2024-02-15T12:02:06;97912.21;;;13.88;100.00
45872;BME280;32333;55.844;-3.210;2024-02-15T12:04:34;97901.59;;;14.78;100.00
45872;BME280;32333;55.844;-3.210;2024-02-15T12:07:02;97905.90;;;13.68;100.00
45872;BME280;32333;55.844;-3.210;2024-02-15T12:09:29;97905.97;;;13.71;100.00
45872;BME280;32333;55.844;-3.210;2024-02-15T12:11:58;97904.97;;;14.09;100.00
45872;BME280;32333;55.844;-3.210;2024-02-15T12:14:34;97899.53;;;14.35;100.00
45872;BME280;32333;55.844;-3.210;2024-02-15T12:17:03;97898.27;;;13.08;100.00
45872;BME280;32333;55.844;-3.210;2024-02-15T12:19:30;97891.24;;;14.19;100.00
45872;BME280;32333;55.844;-3.210;2024-02-15T12:21:59;97890.75;;;13.12;100.00
45872;BME280;32333;55.844;-3.210;2024-02-15T12:24:27;97886.51;;;13.21;100.00
45872;BME280;32333;55.844;-3.210;2024-02-15T12:27:00;97883.84;;;12.45;100.00
45872;BME280;32333;55.844;-3.210;2024-02-15T12:29:28;97880.98;;;13.84;100.00
45872;BME280;32333;55.844;-3.210;2024-02-15T12:31:55;97878.92;;;13.91;100.00
45872;BME280;32333;55.844;-3.210;2024-02-15T12:34:23;97883.39;;;13.65;100.00
45872;BME280;32333;55.844;-3.210;2024-02-15T12:37:05;97882.58;;;13.30;100.00
45872;BME280;32333;55.844;-3.210;2024-02-15T12:39:33;97884.42;;;12.87;100.00
45872;BME280;32333;55.844;-3.210;2024-02-15T12:42:01;97884.59;;;12.81;100.00
45872;BME280;32333;55.844;-3.210;2024-02-15T12:44:34;97881.16;;;12.32;100.00
45872;BME280;32333;55.844;-3.210;2024-02-15T12:47:02;97879.56;;;12.54;100.00
45872;BME280;32333;55.844;-3.210;2024-02-15T12:49:30;97875.71;;;11.15;100.00
45872;BME280;32333;55.844;-3.210;2024-02-15T12:52:49;97881.37;;;11.19;100.00
45872;BME280;32333;55.844;-3.210;2024-02-15T12:55:18;97888.13;;;11.06;100.00
45872;BME280;32333;55.844;-3.210;2024-02-15T12:57:48;97886.34;;;10.95;100.00
45872;BME280;32333;55.844;-3.210;2024-02-15T13:00:18;97883.52;;;10.62;100.00
45872;BME280;32333;55.844;-3.210;2024-02-15T13:02:45;97879.97;;;11.29;100.00
45872;BME280;32333;55.844;-3.210;2024-02-15T13:05:13;97879.25;;;11.00;100.00